sensor_id;sensor_type;location;lat;lon;timestamp;temperature;humidity
24436;DHT22;12616;52.470;13.436;2023-08-01T00:45:00;17.10;99.90
24436;DHT22;12616;52.470;13.436;2023-08-01T00:48:53;17.30;99.90
24436;DHT22;12616;52.470;13.436;2023-08-01T01:42:37;17.20;99.90
24436;DHT22;12616;52.470;13.436;2023-08-01T03:12:25;17.10;99.90
24436;DHT22;12616;52.470;13.436;2023-08-01T03:55:51;17.10;99.90
24436;DHT22;12616;52.470;13.436;2023-08-01T03:59:17;17.10;99.90
24436;DHT22;12616;52.470;13.436;2023-08-01T04:35:23;17.30;99.90
24436;DHT22;12616;52.470;13.436;2023-08-01T04:41:28;17.10;99.90
24436;DHT22;12616;52.470;13.436;2023-08-01T05:07:01;17.40;99.90
24436;DHT22;12616;52.470;13.436;2023-08-01T05:09:28;17.40;99.90
24436;DHT22;12616;52.470;13.436;2023-08-01T05:12:10;17.40;99.90
24436;DHT22;12616;52.470;13.436;2023-08-01T05:17:05;17.40;99.90
24436;DHT22;12616;52.470;13.436;2023-08-01T05:19:35;17.40;99.90
24436;DHT22;12616;52.470;13.436;2023-08-01T05:22:03;17.30;99.90
24436;DHT22;12616;52.470;13.436;2023-08-01T05:24:30;17.40;99.90
24436;DHT22;12616;52.470;13.436;2023-08-01T05:26:57;17.30;99.90
24436;DHT22;12616;52.470;13.436;2023-08-01T05:29:24;17.40;99.90
24436;DHT22;12616;52.470;13.436;2023-08-01T05:31:51;17.40;99.90
24436;DHT22;12616;52.470;13.436;2023-08-01T05:34:18;17.40;99.90
24436;DHT22;12616;52.470;13.436;2023-08-01T05:36:44;17.50;99.90
24436;DHT22;12616;52.470;13.436;2023-08-01T05:39:12;17.50;99.90
24436;DHT22;12616;52.470;13.436;2023-08-01T05:41:39;17.50;99.90
24436;DHT22;12616;52.470;13.436;2023-08-01T05:44:06;16.50;99.90
24436;DHT22;12616;52.470;13.436;2023-08-01T05:46:33;17.60;99.90
24436;DHT22;12616;52.470;13.436;2023-08-01T05:49:00;17.60;99.90
24436;DHT22;12616;52.470;13.436;2023-08-01T05:51:27;17.60;99.90
24436;DHT22;12616;52.470;13.436;2023-08-01T05:53:53;17.50;99.90
24436;DHT22;12616;52.470;13.436;2023-08-01T05:56:22;17.60;99.90
24436;DHT22;12616;52.470;13.436;2023-08-01T05:58:48;17.30;99.90
24436;DHT22;12616;52.470;13.436;2023-08-01T06:01:16;17.60;99.90
24436;DHT22;12616;52.470;13.436;2023-08-01T06:03:43;17.60;99.90
24436;DHT22;12616;52.470;13.436;2023-08-01T06:06:10;17.60;99.90
24436;DHT22;12616;52.470;13.436;2023-08-01T06:08:37;17.60;99.90
24436;DHT22;12616;52.470;13.436;2023-08-01T06:11:03;17.60;99.90
24436;DHT22;12616;52.470;13.436;2023-08-01T06:13:32;17.70;99.90
24436;DHT22;12616;52.470;13.436;2023-08-01T06:15:58;17.60;99.90
24436;DHT22;12616;52.470;13.436;2023-08-01T06:18:25;17.70;99.90
24436;DHT22;12616;52.470;13.436;2023-08-01T06:20:52;17.70;99.90
24436;DHT22;12616;52.470;13.436;2023-08-01T06:23:19;17.70;99.90
24436;DHT22;12616;52.470;13.436;2023-08-01T06:25:46;17.70;99.90
24436;DHT22;12616;52.470;13.436;2023-08-01T06:28:13;17.70;99.90
24436;DHT22;12616;52.470;13.436;2023-08-01T06:30:41;17.80;99.90
24436;DHT22;12616;52.470;13.436;2023-08-01T06:33:08;17.70;99.90
24436;DHT22;12616;52.470;13.436;2023-08-01T06:35:35;17.80;99.90
24436;DHT22;12616;52.470;13.436;2023-08-01T06:38:01;17.90;99.90
24436;DHT22;12616;52.470;13.436;2023-08-01T06:40:28;17.80;99.90
24436;DHT22;12616;52.470;13.436;2023-08-01T06:42:55;17.90;99.90
24436;DHT22;12616;52.470;13.436;2023-08-01T06:45:22;17.80;99.90
24436;DHT22;12616;52.470;13.436;2023-08-01T06:47:50;17.80;99.90
24436;DHT22;12616;52.470;13.436;2023-08-01T06:50:20;17.80;99.90
24436;DHT22;12616;52.470;13.436;2023-08-01T06:52:47;17.80;99.90
24436;DHT22;12616;52.470;13.436;2023-08-01T06:55:14;18.00;99.90
24436;DHT22;12616;52.470;13.436;2023-08-01T06:57:41;17.80;99.90
24436;DHT22;12616;52.470;13.436;2023-08-01T07:00:09;17.90;99.90
24436;DHT22;12616;52.470;13.436;2023-08-01T07:02:36;17.90;99.90
24436;DHT22;12616;52.470;13.436;2023-08-01T07:05:05;17.90;99.90
24436;DHT22;12616;52.470;13.436;2023-08-01T07:07:32;17.80;99.90
24436;DHT22;12616;52.470;13.436;2023-08-01T07:09:59;17.80;99.90
24436;DHT22;12616;52.470;13.436;2023-08-01T07:12:26;17.90;99.90
24436;DHT22;12616;52.470;13.436;2023-08-01T07:14:53;17.90;99.90
24436;DHT22;12616;52.470;13.436;2023-08-01T07:17:19;17.90;99.90
24436;DHT22;12616;52.470;13.436;2023-08-01T07:19:46;17.90;99.90
24436;DHT22;12616;52.470;13.436;2023-08-01T07:22:14;17.90;99.90
24436;DHT22;12616;52.470;13.436;2023-08-01T07:24:41;18.40;99.90
24436;DHT22;12616;52.470;13.436;2023-08-01T07:27:08;18.00;99.90
24436;DHT22;12616;52.470;13.436;2023-08-01T07:29:35;18.10;99.90
24436;DHT22;12616;52.470;13.436;2023-08-01T07:32:02;18.20;99.90
24436;DHT22;12616;52.470;13.436;2023-08-01T07:34:29;18.20;99.90
24436;DHT22;12616;52.470;13.436;2023-08-01T07:36:55;18.30;99.90
24436;DHT22;12616;52.470;13.436;2023-08-01T07:39:24;18.30;99.90
24436;DHT22;12616;52.470;13.436;2023-08-01T07:41:50;18.30;99.90
24436;DHT22;12616;52.470;13.436;2023-08-01T07:44:17;18.50;99.90
24436;DHT22;12616;52.470;13.436;2023-08-01T07:46:44;18.10;99.90
24436;DHT22;12616;52.470;13.436;2023-08-01T07:49:11;18.70;99.90
24436;DHT22;12616;52.470;13.436;2023-08-01T07:51:38;18.50;99.90
24436;DHT22;12616;52.470;13.436;2023-08-01T07:54:04;18.50;95.70
24436;DHT22;12616;52.470;13.436;2023-08-01T07:56:33;18.50;62.50
24436;DHT22;12616;52.470;13.436;2023-08-01T07:58:59;18.60;19.90
24436;DHT22;12616;52.470;13.436;2023-08-01T08:01:27;18.60;41.20
24436;DHT22;12616;52.470;13.436;2023-08-01T08:03:54;18.70;1.00
24436;DHT22;12616;52.470;13.436;2023-08-01T08:06:21;19.00;1.00
24436;DHT22;12616;52.470;13.436;2023-08-01T08:08:49;19.20;35.20
24436;DHT22;12616;52.470;13.436;2023-08-01T08:11:16;19.00;1.00
24436;DHT22;12616;52.470;13.436;2023-08-01T08:13:44;19.00;1.00
24436;DHT22;12616;52.470;13.436;2023-08-01T08:16:11;19.30;1.00
24436;DHT22;12616;52.470;13.436;2023-08-01T08:18:38;19.00;1.00
24436;DHT22;12616;52.470;13.436;2023-08-01T08:21:05;19.00;1.00
24436;DHT22;12616;52.470;13.436;2023-08-01T08:25:59;19.60;1.00
24436;DHT22;12616;52.470;13.436;2023-08-01T08:28:30;19.60;1.00
24436;DHT22;12616;52.470;13.436;2023-08-01T08:30:59;19.70;99.90
24436;DHT22;12616;52.470;13.436;2023-08-01T08:33:27;19.80;99.90
24436;DHT22;12616;52.470;13.436;2023-08-01T08:35:54;19.70;1.00
24436;DHT22;12616;52.470;13.436;2023-08-01T08:38:21;19.90;1.00
24436;DHT22;12616;52.470;13.436;2023-08-01T08:40:55;20.00;1.00
24436;DHT22;12616;52.470;13.436;2023-08-01T08:43:23;20.10;99.90
24436;DHT22;12616;52.470;13.436;2023-08-01T08:45:55;20.30;1.00
24436;DHT22;12616;52.470;13.436;2023-08-01T08:48:25;20.10;99.90
24436;DHT22;12616;52.470;13.436;2023-08-01T08:50:52;20.10;1.00
24436;DHT22;12616;52.470;13.436;2023-08-01T08:53:21;20.20;1.00
24436;DHT22;12616;52.470;13.436;2023-08-01T08:55:48;20.10;99.90
24436;DHT22;12616;52.470;13.436;2023-08-01T08:58:15;20.10;99.90
24436;DHT22;12616;52.470;13.436;2023-08-01T09:00:46;20.00;1.00
24436;DHT22;12616;52.470;13.436;2023-08-01T09:05:49;20.20;1.00
24436;DHT22;12616;52.470;13.436;2023-08-01T09:08:18;20.20;99.90
24436;DHT22;12616;52.470;13.436;2023-08-01T09:10:47;20.30;99.90
24436;DHT22;12616;52.470;13.436;2023-08-01T09:13:15;20.40;2.30
24436;DHT22;12616;52.470;13.436;2023-08-01T09:18:10;20.60;94.80
24436;DHT22;12616;52.470;13.436;2023-08-01T09:20:43;20.40;1.00
24436;DHT22;12616;52.470;13.436;2023-08-01T09:23:11;20.80;99.90
24436;DHT22;12616;52.470;13.436;2023-08-01T09:28:20;20.90;1.00
24436;DHT22;12616;52.470;13.436;2023-08-01T09:33:15;21.40;1.00
24436;DHT22;12616;52.470;13.436;2023-08-01T09:38:13;21.10;99.90
24436;DHT22;12616;52.470;13.436;2023-08-01T09:40:41;21.10;99.90
24436;DHT22;12616;52.470;13.436;2023-08-01T09:43:10;21.00;1.00
24436;DHT22;12616;52.470;13.436;2023-08-01T09:45:49;20.50;99.90
24436;DHT22;12616;52.470;13.436;2023-08-01T09:48:25;20.30;99.90
24436;DHT22;12616;52.470;13.436;2023-08-01T09:53:22;20.10;1.00
24436;DHT22;12616;52.470;13.436;2023-08-01T09:55:59;20.20;1.00
24436;DHT22;12616;52.470;13.436;2023-08-01T09:58:33;20.20;1.00
24436;DHT22;12616;52.470;13.436;2023-08-01T10:01:06;20.40;1.00
24436;DHT22;12616;52.470;13.436;2023-08-01T10:08:30;20.60;1.00
24436;DHT22;12616;52.470;13.436;2023-08-01T10:11:03;20.60;1.00
24436;DHT22;12616;52.470;13.436;2023-08-01T10:13:32;20.60;1.00
24436;DHT22;12616;52.470;13.436;2023-08-01T10:16:01;20.70;5.70
24436;DHT22;12616;52.470;13.436;2023-08-01T10:18:29;20.50;1.00
24436;DHT22;12616;52.470;13.436;2023-08-01T10:20:57;20.50;90.30
24436;DHT22;12616;52.470;13.436;2023-08-01T10:23:24;20.20;99.90
24436;DHT22;12616;52.470;13.436;2023-08-01T10:25:53;19.80;99.90
24436;DHT22;12616;52.470;13.436;2023-08-01T10:28:31;20.20;99.90
24436;DHT22;12616;52.470;13.436;2023-08-01T10:31:07;20.20;99.90
24436;DHT22;12616;52.470;13.436;2023-08-01T10:36:12;20.40;1.00
24436;DHT22;12616;52.470;13.436;2023-08-01T10:38:48;20.30;99.90
24436;DHT22;12616;52.470;13.436;2023-08-01T10:41:22;20.20;1.00
24436;DHT22;12616;52.470;13.436;2023-08-01T10:48:50;20.60;1.00
24436;DHT22;12616;52.470;13.436;2023-08-01T10:51:18;20.40;99.90
24436;DHT22;12616;52.470;13.436;2023-08-01T10:53:46;20.10;99.90
24436;DHT22;12616;52.470;13.436;2023-08-01T10:56:17;20.10;99.90
24436;DHT22;12616;52.470;13.436;2023-08-01T10:58:46;18.60;99.90
24436;DHT22;12616;52.470;13.436;2023-08-01T11:01:13;18.30;99.90
24436;DHT22;12616;52.470;13.436;2023-08-01T11:03:41;18.30;99.90
24436;DHT22;12616;52.470;13.436;2023-08-01T11:08:36;18.30;99.90
24436;DHT22;12616;52.470;13.436;2023-08-01T11:11:04;18.30;99.90
24436;DHT22;12616;52.470;13.436;2023-08-01T11:13:32;18.00;99.90
24436;DHT22;12616;52.470;13.436;2023-08-01T11:16:02;18.00;99.90
24436;DHT22;12616;52.470;13.436;2023-08-01T11:18:30;18.00;99.90
24436;DHT22;12616;52.470;13.436;2023-08-01T11:20:57;18.00;99.90
24436;DHT22;12616;52.470;13.436;2023-08-01T11:23:28;18.00;99.90
24436;DHT22;12616;52.470;13.436;2023-08-01T11:25:55;18.10;99.90
24436;DHT22;12616;52.470;13.436;2023-08-01T11:33:20;17.80;99.90
24436;DHT22;12616;52.470;13.436;2023-08-01T11:35:50;17.90;99.90
24436;DHT22;12616;52.470;13.436;2023-08-01T11:38:19;17.80;99.90
24436;DHT22;12616;52.470;13.436;2023-08-01T11:40:47;17.70;99.90
24436;DHT22;12616;52.470;13.436;2023-08-01T11:43:15;17.60;99.90
24436;DHT22;12616;52.470;13.436;2023-08-01T11:45:49;17.30;99.90
24436;DHT22;12616;52.470;13.436;2023-08-01T11:48:21;17.60;99.90
24436;DHT22;12616;52.470;13.436;2023-08-01T11:50:49;17.60;99.90
24436;DHT22;12616;52.470;13.436;2023-08-01T11:53:19;17.60;99.90
24436;DHT22;12616;52.470;13.436;2023-08-01T11:55:47;17.60;99.90
24436;DHT22;12616;52.470;13.436;2023-08-01T11:58:14;17.70;99.90
24436;DHT22;12616;52.470;13.436;2023-08-01T12:00:41;17.70;99.90
24436;DHT22;12616;52.470;13.436;2023-08-01T12:03:10;17.60;99.90
24436;DHT22;12616;52.470;13.436;2023-08-01T12:05:40;17.70;99.90
24436;DHT22;12616;52.470;13.436;2023-08-01T12:08:12;17.80;99.90
24436;DHT22;12616;52.470;13.436;2023-08-01T12:10:39;17.90;99.90
24436;DHT22;12616;52.470;13.436;2023-08-01T12:13:07;17.90;99.90
24436;DHT22;12616;52.470;13.436;2023-08-01T12:15:46;18.00;99.90
24436;DHT22;12616;52.470;13.436;2023-08-01T12:18:20;18.40;99.90
24436;DHT22;12616;52.470;13.436;2023-08-01T12:20:48;18.40;99.90
24436;DHT22;12616;52.470;13.436;2023-08-01T12:23:15;18.50;1.00
24436;DHT22;12616;52.470;13.436;2023-08-01T12:25:42;18.60;12.80
24436;DHT22;12616;52.470;13.436;2023-08-01T12:28:09;18.60;1.00
24436;DHT22;12616;52.470;13.436;2023-08-01T12:30:35;18.40;1.00
24436;DHT22;12616;52.470;13.436;2023-08-01T12:33:02;18.60;1.00
24436;DHT22;12616;52.470;13.436;2023-08-01T12:35:29;18.60;1.00
24436;DHT22;12616;52.470;13.436;2023-08-01T12:37:57;18.60;1.00
24436;DHT22;12616;52.470;13.436;2023-08-01T12:40:24;18.70;1.00
24436;DHT22;12616;52.470;13.436;2023-08-01T12:42:51;19.30;1.00
24436;DHT22;12616;52.470;13.436;2023-08-01T12:45:18;19.30;1.00
24436;DHT22;12616;52.470;13.436;2023-08-01T12:47:46;19.10;1.00
24436;DHT22;12616;52.470;13.436;2023-08-01T12:50:13;19.40;1.00
24436;DHT22;12616;52.470;13.436;2023-08-01T12:52:39;19.50;99.90
24436;DHT22;12616;52.470;13.436;2023-08-01T12:55:08;19.50;1.00
24436;DHT22;12616;52.470;13.436;2023-08-01T12:57:35;19.40;99.90
24436;DHT22;12616;52.470;13.436;2023-08-01T13:00:02;19.40;99.90
24436;DHT22;12616;52.470;13.436;2023-08-01T13:02:29;19.40;99.90
24436;DHT22;12616;52.470;13.436;2023-08-01T13:04:56;19.50;99.90
24436;DHT22;12616;52.470;13.436;2023-08-01T13:07:23;19.50;99.90
24436;DHT22;12616;52.470;13.436;2023-08-01T13:12:19;19.50;1.00
24436;DHT22;12616;52.470;13.436;2023-08-01T13:14:46;19.70;99.90
24436;DHT22;12616;52.470;13.436;2023-08-01T13:17:13;19.90;99.90
24436;DHT22;12616;52.470;13.436;2023-08-01T13:19:40;19.80;99.90
24436;DHT22;12616;52.470;13.436;2023-08-01T13:22:07;19.90;44.80
24436;DHT22;12616;52.470;13.436;2023-08-01T13:24:34;19.80;1.00
24436;DHT22;12616;52.470;13.436;2023-08-01T13:27:01;20.40;1.00
24436;DHT22;12616;52.470;13.436;2023-08-01T13:29:29;20.20;1.00
24436;DHT22;12616;52.470;13.436;2023-08-01T13:31:56;20.20;1.00
24436;DHT22;12616;52.470;13.436;2023-08-01T13:34:23;20.10;99.90
24436;DHT22;12616;52.470;13.436;2023-08-01T13:39:17;20.40;99.90
24436;DHT22;12616;52.470;13.436;2023-08-01T13:46:40;20.80;99.90
24436;DHT22;12616;52.470;13.436;2023-08-01T13:49:07;20.50;99.90
24436;DHT22;12616;52.470;13.436;2023-08-01T13:51:35;20.80;23.20
24436;DHT22;12616;52.470;13.436;2023-08-01T13:54:10;20.90;1.00
24436;DHT22;12616;52.470;13.436;2023-08-01T13:56:38;21.00;1.00
24436;DHT22;12616;52.470;13.436;2023-08-01T13:59:05;21.00;99.90
24436;DHT22;12616;52.470;13.436;2023-08-01T14:01:32;21.00;1.00
24436;DHT22;12616;52.470;13.436;2023-08-01T14:04:00;21.20;1.00
24436;DHT22;12616;52.470;13.436;2023-08-01T14:06:27;21.40;94.30
24436;DHT22;12616;52.470;13.436;2023-08-01T14:08:55;21.80;1.00
24436;DHT22;12616;52.470;13.436;2023-08-01T14:11:22;21.50;99.90
24436;DHT22;12616;52.470;13.436;2023-08-01T14:13:49;21.60;1.00
24436;DHT22;12616;52.470;13.436;2023-08-01T14:16:16;22.20;1.00
24436;DHT22;12616;52.470;13.436;2023-08-01T14:18:43;21.60;99.90
24436;DHT22;12616;52.470;13.436;2023-08-01T14:21:12;22.00;1.00
24436;DHT22;12616;52.470;13.436;2023-08-01T14:23:38;22.00;23.40
24436;DHT22;12616;52.470;13.436;2023-08-01T14:26:07;22.20;99.90
24436;DHT22;12616;52.470;13.436;2023-08-01T14:28:34;21.90;1.00
24436;DHT22;12616;52.470;13.436;2023-08-01T14:33:28;22.10;99.90
24436;DHT22;12616;52.470;13.436;2023-08-01T14:35:56;21.90;1.00
24436;DHT22;12616;52.470;13.436;2023-08-01T14:38:24;22.00;1.00
24436;DHT22;12616;52.470;13.436;2023-08-01T14:40:52;22.10;27.40
24436;DHT22;12616;52.470;13.436;2023-08-01T14:43:19;22.20;97.60
24436;DHT22;12616;52.470;13.436;2023-08-01T14:45:48;22.20;1.00
24436;DHT22;12616;52.470;13.436;2023-08-01T14:50:46;22.30;1.00
24436;DHT22;12616;52.470;13.436;2023-08-01T14:53:14;22.50;99.90
24436;DHT22;12616;52.470;13.436;2023-08-01T14:55:42;22.30;1.00
24436;DHT22;12616;52.470;13.436;2023-08-01T15:00:37;22.20;1.00
24436;DHT22;12616;52.470;13.436;2023-08-01T15:03:04;22.20;99.90
24436;DHT22;12616;52.470;13.436;2023-08-01T15:07:58;22.10;99.90
24436;DHT22;12616;52.470;13.436;2023-08-01T15:10:26;21.50;99.90
24436;DHT22;12616;52.470;13.436;2023-08-01T15:12:54;21.80;1.00
24436;DHT22;12616;52.470;13.436;2023-08-01T15:17:48;21.60;95.10
24436;DHT22;12616;52.470;13.436;2023-08-01T15:20:15;21.50;1.00
24436;DHT22;12616;52.470;13.436;2023-08-01T15:25:09;19.60;99.90
24436;DHT22;12616;52.470;13.436;2023-08-01T15:27:36;19.40;99.90
24436;DHT22;12616;52.470;13.436;2023-08-01T15:30:06;18.20;1.00
24436;DHT22;12616;52.470;13.436;2023-08-01T15:32:33;17.40;1.00
24436;DHT22;12616;52.470;13.436;2023-08-01T15:35:00;16.90;99.90
24436;DHT22;12616;52.470;13.436;2023-08-01T15:37:27;16.90;99.90
24436;DHT22;12616;52.470;13.436;2023-08-01T15:39:55;16.80;99.90
24436;DHT22;12616;52.470;13.436;2023-08-01T15:42:21;16.80;99.90
24436;DHT22;12616;52.470;13.436;2023-08-01T15:44:49;16.90;99.90
24436;DHT22;12616;52.470;13.436;2023-08-01T15:47:17;17.00;99.90
24436;DHT22;12616;52.470;13.436;2023-08-01T15:49:44;17.00;99.90
24436;DHT22;12616;52.470;13.436;2023-08-01T15:52:10;17.00;99.90
24436;DHT22;12616;52.470;13.436;2023-08-01T15:54:37;17.10;99.90
24436;DHT22;12616;52.470;13.436;2023-08-01T15:57:05;17.10;99.90
24436;DHT22;12616;52.470;13.436;2023-08-01T15:59:32;17.10;99.90
24436;DHT22;12616;52.470;13.436;2023-08-01T16:01:58;17.30;99.90
24436;DHT22;12616;52.470;13.436;2023-08-01T16:04:27;17.50;99.90
24436;DHT22;12616;52.470;13.436;2023-08-01T16:06:53;17.70;99.90
24436;DHT22;12616;52.470;13.436;2023-08-01T16:09:20;17.90;99.90
24436;DHT22;12616;52.470;13.436;2023-08-01T16:11:47;18.00;99.90
24436;DHT22;12616;52.470;13.436;2023-08-01T16:16:42;18.00;99.90
24436;DHT22;12616;52.470;13.436;2023-08-01T16:19:09;18.00;99.90
24436;DHT22;12616;52.470;13.436;2023-08-01T16:21:37;18.00;99.90
24436;DHT22;12616;52.470;13.436;2023-08-01T16:24:04;18.00;99.90
24436;DHT22;12616;52.470;13.436;2023-08-01T16:26:31;18.00;99.90
24436;DHT22;12616;52.470;13.436;2023-08-01T16:29:00;18.20;99.90
24436;DHT22;12616;52.470;13.436;2023-08-01T16:31:27;18.10;99.90
24436;DHT22;12616;52.470;13.436;2023-08-01T16:33:54;18.20;99.90
24436;DHT22;12616;52.470;13.436;2023-08-01T16:38:51;18.40;54.20
24436;DHT22;12616;52.470;13.436;2023-08-01T16:43:47;18.60;1.00
24436;DHT22;12616;52.470;13.436;2023-08-01T16:51:08;18.30;1.00
24436;DHT22;12616;52.470;13.436;2023-08-01T16:53:35;18.20;1.00
24436;DHT22;12616;52.470;13.436;2023-08-01T16:56:04;18.10;1.00
24436;DHT22;12616;52.470;13.436;2023-08-01T16:58:31;18.00;99.90
24436;DHT22;12616;52.470;13.436;2023-08-01T17:00:58;18.00;1.00
24436;DHT22;12616;52.470;13.436;2023-08-01T17:03:24;18.00;99.90
24436;DHT22;12616;52.470;13.436;2023-08-01T17:05:51;18.00;1.00
24436;DHT22;12616;52.470;13.436;2023-08-01T17:08:18;18.20;1.00
24436;DHT22;12616;52.470;13.436;2023-08-01T17:13:14;18.30;1.00
24436;DHT22;12616;52.470;13.436;2023-08-01T17:15:40;17.90;1.00
24436;DHT22;12616;52.470;13.436;2023-08-01T17:18:08;18.10;99.90
24436;DHT22;12616;52.470;13.436;2023-08-01T17:23:02;18.10;99.90
24436;DHT22;12616;52.470;13.436;2023-08-01T17:25:29;18.10;1.00
24436;DHT22;12616;52.470;13.436;2023-08-01T17:30:24;18.00;99.90
24436;DHT22;12616;52.470;13.436;2023-08-01T17:32:51;17.70;99.90
24436;DHT22;12616;52.470;13.436;2023-08-01T17:35:18;17.90;99.90
24436;DHT22;12616;52.470;13.436;2023-08-01T17:37:45;17.80;53.30
24436;DHT22;12616;52.470;13.436;2023-08-01T17:40:12;17.70;1.00
24436;DHT22;12616;52.470;13.436;2023-08-01T17:42:39;17.70;47.00
24436;DHT22;12616;52.470;13.436;2023-08-01T17:45:06;17.80;1.50
24436;DHT22;12616;52.470;13.436;2023-08-01T17:47:37;17.80;1.00
24436;DHT22;12616;52.470;13.436;2023-08-01T17:50:04;17.80;99.90
24436;DHT22;12616;52.470;13.436;2023-08-01T17:52:32;18.10;99.90
24436;DHT22;12616;52.470;13.436;2023-08-01T17:57:26;17.90;1.00
24436;DHT22;12616;52.470;13.436;2023-08-01T17:59:53;18.10;51.70
24436;DHT22;12616;52.470;13.436;2023-08-01T18:02:20;18.20;1.00
24436;DHT22;12616;52.470;13.436;2023-08-01T18:04:49;17.80;1.00
24436;DHT22;12616;52.470;13.436;2023-08-01T18:07:15;18.40;1.00
24436;DHT22;12616;52.470;13.436;2023-08-01T18:12:11;18.00;1.00
24436;DHT22;12616;52.470;13.436;2023-08-01T18:22:02;18.10;1.00
24436;DHT22;12616;52.470;13.436;2023-08-01T18:34:20;17.90;1.00
24436;DHT22;12616;52.470;13.436;2023-08-01T18:39:15;18.00;99.90
24436;DHT22;12616;52.470;13.436;2023-08-01T18:41:44;18.00;99.90
24436;DHT22;12616;52.470;13.436;2023-08-01T18:46:38;18.00;1.00
24436;DHT22;12616;52.470;13.436;2023-08-01T18:54:03;18.10;99.90
24436;DHT22;12616;52.470;13.436;2023-08-01T18:56:33;18.00;99.90
24436;DHT22;12616;52.470;13.436;2023-08-01T19:03:55;18.00;1.00
24436;DHT22;12616;52.470;13.436;2023-08-01T19:06:24;18.00;1.00
24436;DHT22;12616;52.470;13.436;2023-08-01T19:11:19;17.90;81.40
24436;DHT22;12616;52.470;13.436;2023-08-01T19:13:48;18.40;1.00
24436;DHT22;12616;52.470;13.436;2023-08-01T19:18:44;18.10;1.00
24436;DHT22;12616;52.470;13.436;2023-08-01T19:21:13;17.90;99.90
24436;DHT22;12616;52.470;13.436;2023-08-01T19:31:04;17.80;1.00
24436;DHT22;12616;52.470;13.436;2023-08-01T19:33:31;18.00;1.00
24436;DHT22;12616;52.470;13.436;2023-08-01T19:38:24;17.70;1.00
24436;DHT22;12616;52.470;13.436;2023-08-01T19:43:18;17.60;1.00
24436;DHT22;12616;52.470;13.436;2023-08-01T19:45:45;17.70;1.00
24436;DHT22;12616;52.470;13.436;2023-08-01T19:48:14;17.70;1.00
24436;DHT22;12616;52.470;13.436;2023-08-01T19:50:41;17.70;1.00
24436;DHT22;12616;52.470;13.436;2023-08-01T19:53:08;18.20;1.00
24436;DHT22;12616;52.470;13.436;2023-08-01T19:58:03;17.40;1.00
24436;DHT22;12616;52.470;13.436;2023-08-01T20:00:29;17.70;1.00
24436;DHT22;12616;52.470;13.436;2023-08-01T20:02:57;17.80;1.00
24436;DHT22;12616;52.470;13.436;2023-08-01T20:05:25;17.70;1.00
24436;DHT22;12616;52.470;13.436;2023-08-01T20:07:52;17.70;1.00
24436;DHT22;12616;52.470;13.436;2023-08-01T20:10:19;17.70;1.00
24436;DHT22;12616;52.470;13.436;2023-08-01T20:12:46;17.90;1.00
24436;DHT22;12616;52.470;13.436;2023-08-01T20:15:13;17.40;99.90
24436;DHT22;12616;52.470;13.436;2023-08-01T20:17:41;17.70;1.00
24436;DHT22;12616;52.470;13.436;2023-08-01T20:20:09;17.90;99.90
24436;DHT22;12616;52.470;13.436;2023-08-01T20:22:37;17.70;1.00
24436;DHT22;12616;52.470;13.436;2023-08-01T20:25:05;17.70;1.00
24436;DHT22;12616;52.470;13.436;2023-08-01T20:27:32;17.80;1.00
24436;DHT22;12616;52.470;13.436;2023-08-01T20:29:59;17.80;1.00
24436;DHT22;12616;52.470;13.436;2023-08-01T20:32:26;17.80;1.00
24436;DHT22;12616;52.470;13.436;2023-08-01T20:34:53;17.70;1.00
24436;DHT22;12616;52.470;13.436;2023-08-01T20:37:20;17.70;1.00
24436;DHT22;12616;52.470;13.436;2023-08-01T20:39:48;17.70;1.00
24436;DHT22;12616;52.470;13.436;2023-08-01T20:44:43;17.70;1.00
24436;DHT22;12616;52.470;13.436;2023-08-01T20:47:10;17.80;85.00
24436;DHT22;12616;52.470;13.436;2023-08-01T20:49:36;17.60;1.00
24436;DHT22;12616;52.470;13.436;2023-08-01T20:52:04;17.60;1.00
24436;DHT22;12616;52.470;13.436;2023-08-01T20:54:31;17.50;1.00
24436;DHT22;12616;52.470;13.436;2023-08-01T20:56:59;17.50;1.00
24436;DHT22;12616;52.470;13.436;2023-08-01T20:59:26;17.40;1.00
24436;DHT22;12616;52.470;13.436;2023-08-01T21:01:55;17.40;1.00
24436;DHT22;12616;52.470;13.436;2023-08-01T21:04:22;17.30;1.00
24436;DHT22;12616;52.470;13.436;2023-08-01T21:06:50;17.30;1.00
24436;DHT22;12616;52.470;13.436;2023-08-01T21:09:17;17.30;35.10
24436;DHT22;12616;52.470;13.436;2023-08-01T21:11:44;17.30;1.00
24436;DHT22;12616;52.470;13.436;2023-08-01T21:14:12;17.30;87.90
24436;DHT22;12616;52.470;13.436;2023-08-01T21:16:39;17.30;83.20
24436;DHT22;12616;52.470;13.436;2023-08-01T21:19:08;17.30;1.00
24436;DHT22;12616;52.470;13.436;2023-08-01T21:21:34;17.20;1.00
24436;DHT22;12616;52.470;13.436;2023-08-01T21:24:01;17.30;1.00
24436;DHT22;12616;52.470;13.436;2023-08-01T21:26:28;17.30;99.90
24436;DHT22;12616;52.470;13.436;2023-08-01T21:28:55;17.60;99.90
24436;DHT22;12616;52.470;13.436;2023-08-01T21:31:24;17.30;1.00
24436;DHT22;12616;52.470;13.436;2023-08-01T21:33:51;17.60;1.00
24436;DHT22;12616;52.470;13.436;2023-08-01T21:36:17;17.30;1.00
24436;DHT22;12616;52.470;13.436;2023-08-01T21:41:14;17.30;1.00
24436;DHT22;12616;52.470;13.436;2023-08-01T21:43:42;17.00;1.00
24436;DHT22;12616;52.470;13.436;2023-08-01T21:46:09;17.30;1.00
24436;DHT22;12616;52.470;13.436;2023-08-01T21:48:37;17.30;1.00
24436;DHT22;12616;52.470;13.436;2023-08-01T21:51:05;17.10;22.50
24436;DHT22;12616;52.470;13.436;2023-08-01T21:53:32;17.20;1.00
24436;DHT22;12616;52.470;13.436;2023-08-01T21:55:59;17.60;1.00
24436;DHT22;12616;52.470;13.436;2023-08-01T21:58:26;17.30;1.00
24436;DHT22;12616;52.470;13.436;2023-08-01T22:00:53;17.40;1.00
24436;DHT22;12616;52.470;13.436;2023-08-01T22:03:20;17.20;1.00
24436;DHT22;12616;52.470;13.436;2023-08-01T22:05:54;17.10;1.00
24436;DHT22;12616;52.470;13.436;2023-08-01T22:08:21;17.20;1.00
24436;DHT22;12616;52.470;13.436;2023-08-01T22:10:51;17.20;1.00
24436;DHT22;12616;52.470;13.436;2023-08-01T22:13:18;17.10;1.00
24436;DHT22;12616;52.470;13.436;2023-08-01T22:15:45;17.00;99.90
24436;DHT22;12616;52.470;13.436;2023-08-01T22:18:12;17.10;1.00
24436;DHT22;12616;52.470;13.436;2023-08-01T22:20:50;16.80;1.00
24436;DHT22;12616;52.470;13.436;2023-08-01T22:23:17;17.10;1.00
24436;DHT22;12616;52.470;13.436;2023-08-01T22:25:44;17.00;1.00
24436;DHT22;12616;52.470;13.436;2023-08-01T22:28:12;17.00;1.00
24436;DHT22;12616;52.470;13.436;2023-08-01T22:33:06;16.70;12.80
24436;DHT22;12616;52.470;13.436;2023-08-01T22:35:33;16.90;1.00
24436;DHT22;12616;52.470;13.436;2023-08-01T22:38:01;16.80;1.00
24436;DHT22;12616;52.470;13.436;2023-08-01T22:40:28;17.10;1.00